Time;durP1;ratioP1;P1;durP2;ratioP2;P2;SDS_P1;SDS_P2;PMS_P1;PMS_P2;Temp;Humidity;BMP_temperature;BMP_pressure;BME280_temperature;BME280_humidity;BME280_pressure;Samples;Min_cycle;Max_cycle;Signal;HPM_P1;HPM_P2
2022/02/17 00:00:29;;;;;;;0.73;0.40;;;;;;;;;;6250761;23;20193;-84
2022/02/17 00:02:55;;;;;;;1.03;0.80;;;;;;;;;;6249235;23;20591;-84
2022/02/17 00:05:22;;;;;;;0.60;0.23;;;;;;;;;;6250765;23;20170;-85
2022/02/17 00:07:49;;;;;;;1.20;0.90;;;;;;;;;;6250796;23;20148;-84
2022/02/17 00:10:15;;;;;;;0.20;0.20;;;;;;;;;;6250416;23;20179;-84
2022/02/17 00:12:41;;;;;;;1.07;0.20;;;;;;;;;;6249077;23;20172;-83
2022/02/17 00:15:07;;;;;;;0.57;0.20;;;;;;;;;;6250759;23;20188;-84
2022/02/17 00:17:34;;;;;;;0.73;0.30;;;;;;;;;;6249306;23;20158;-84
2022/02/17 00:20:00;;;;;;;0.30;0.30;;;;;;;;;;6250384;23;20177;-84
2022/02/17 00:22:26;;;;;;;0.30;0.30;;;;;;;;;;6251703;23;20150;-84
2022/02/17 00:24:52;;;;;;;1.13;0.30;;;;;;;;;;6249166;23;20185;-84
2022/02/17 00:27:18;;;;;;;0.83;0.20;;;;;;;;;;6250703;23;20159;-84
2022/02/17 00:29:44;;;;;;;0.33;0.33;;;;;;;;;;6249643;23;20149;-82
2022/02/17 00:32:10;;;;;;;2.00;0.30;;;;;;;;;;6250172;23;20264;-83
2022/02/17 00:34:36;;;;;;;0.47;0.27;;;;;;;;;;6249004;23;20220;-83
2022/02/17 00:37:03;;;;;;;0.30;0.30;;;;;;;;;;6250912;23;20152;-82
2022/02/17 00:39:30;;;;;;;0.30;0.30;;;;;;;;;;6247651;23;20163;-83
2022/02/17 00:41:56;;;;;;;0.20;0.20;;;;;;;;;;6249378;23;20260;-82
2022/02/17 00:44:25;;;;;;;0.57;0.30;;;;;;;;;;6248508;23;20181;-82
2022/02/17 00:46:54;;;;;;;0.57;0.30;;;;;;;;;;6250918;23;20588;-82
2022/02/17 00:49:20;;;;;;;0.30;0.30;;;;;;;;;;6250959;22;20158;-83
2022/02/17 00:51:46;;;;;;;0.20;0.20;;;;;;;;;;6250193;23;20468;-83
2022/02/17 00:54:12;;;;;;;0.17;0.17;;;;;;;;;;6250804;23;20233;-82
2022/02/17 00:56:38;;;;;;;0.53;0.20;;;;;;;;;;6248812;23;20181;-82
2022/02/17 00:59:04;;;;;;;0.20;0.20;;;;;;;;;;6251762;23;20157;-82
2022/02/17 01:01:30;;;;;;;0.27;0.27;;;;;;;;;;6251213;23;20146;-82
2022/02/17 01:03:56;;;;;;;0.43;0.20;;;;;;;;;;6251210;23;20534;-83
2022/02/17 01:06:22;;;;;;;0.20;0.20;;;;;;;;;;6249406;23;20165;-83
2022/02/17 01:08:48;;;;;;;0.20;0.20;;;;;;;;;;6252791;23;20169;-83
2022/02/17 01:11:14;;;;;;;1.20;0.20;;;;;;;;;;6251102;23;20150;-82
2022/02/17 01:13:40;;;;;;;0.10;0.10;;;;;;;;;;6248864;23;20179;-83
2022/02/17 01:16:07;;;;;;;0.43;0.20;;;;;;;;;;6251525;23;20165;-83
2022/02/17 01:18:33;;;;;;;0.37;0.20;;;;;;;;;;6248686;23;20201;-83
2022/02/17 01:20:59;;;;;;;0.20;0.20;;;;;;;;;;6249218;23;20180;-82
2022/02/17 01:23:25;;;;;;;0.37;0.30;;;;;;;;;;6251765;23;20228;-82
2022/02/17 01:25:51;;;;;;;0.47;0.23;;;;;;;;;;6252450;23;20173;-83
2022/02/17 01:28:18;;;;;;;0.50;0.30;;;;;;;;;;6251838;23;20185;-82
2022/02/17 01:30:44;;;;;;;0.70;0.40;;;;;;;;;;6253252;22;20166;-82
2022/02/17 01:33:10;;;;;;;0.90;0.30;;;;;;;;;;6225910;23;20158;-82
2022/02/17 01:35:36;;;;;;;0.20;0.20;;;;;;;;;;6252459;23;20167;-82
2022/02/17 01:38:03;;;;;;;0.57;0.40;;;;;;;;;;6253893;23;20150;-82
2022/02/17 01:40:29;;;;;;;1.03;0.30;;;;;;;;;;6253736;23;20233;-83
2022/02/17 01:42:55;;;;;;;0.30;0.30;;;;;;;;;;6249662;23;20529;-82
2022/02/17 01:45:21;;;;;;;0.50;0.30;;;;;;;;;;6253611;23;20201;-83
2022/02/17 01:47:48;;;;;;;0.20;0.10;;;;;;;;;;6250421;23;20587;-83
2022/02/17 01:50:14;;;;;;;0.33;0.30;;;;;;;;;;6252114;23;20598;-83
2022/02/17 01:52:40;;;;;;;0.20;0.20;;;;;;;;;;6251226;23;20171;-83
2022/02/17 01:55:07;;;;;;;0.40;0.33;;;;;;;;;;6249635;23;20284;-83
2022/02/17 01:57:34;;;;;;;0.90;0.40;;;;;;;;;;6251954;23;20592;-83
2022/02/17 02:00:00;;;;;;;0.40;0.30;;;;;;;;;;6252481;22;20471;-83
2022/02/17 02:02:27;;;;;;;0.30;0.10;;;;;;;;;;6251041;23;20156;-83
2022/02/17 02:04:53;;;;;;;0.40;0.40;;;;;;;;;;6252290;22;20219;-83
2022/02/17 02:07:19;;;;;;;0.30;0.30;;;;;;;;;;6252711;23;20527;-83
2022/02/17 02:09:45;;;;;;;0.17;0.17;;;;;;;;;;6253739;23;20208;-83
2022/02/17 02:12:11;;;;;;;0.30;0.20;;;;;;;;;;6251508;23;20162;-83
2022/02/17 02:14:48;;;;;;;0.43;0.30;;;;;;;;;;6252734;23;20189;-82
2022/02/17 02:17:14;;;;;;;0.73;0.30;;;;;;;;;;6250863;23;20605;-83
2022/02/17 02:19:40;;;;;;;0.43;0.40;;;;;;;;;;6251234;23;20142;-86
2022/02/17 02:22:06;;;;;;;0.20;0.20;;;;;;;;;;6246590;23;20145;-83
2022/02/17 02:24:33;;;;;;;0.30;0.30;;;;;;;;;;6248312;23;20169;-82
2022/02/17 02:26:59;;;;;;;0.50;0.40;;;;;;;;;;6248188;23;20145;-83
2022/02/17 02:29:25;;;;;;;1.53;0.50;;;;;;;;;;6248635;23;20197;-84
2022/02/17 02:31:51;;;;;;;0.73;0.53;;;;;;;;;;6248238;23;20463;-82
2022/02/17 02:34:17;;;;;;;0.53;0.20;;;;;;;;;;6246045;23;20183;-82
2022/02/17 02:36:43;;;;;;;0.47;0.27;;;;;;;;;;6246373;23;20158;-81
2022/02/17 02:39:09;;;;;;;1.00;0.20;;;;;;;;;;6246627;23;20682;-83
2022/02/17 02:41:35;;;;;;;0.20;0.20;;;;;;;;;;6248514;23;20161;-83
2022/02/17 02:44:01;;;;;;;0.30;0.30;;;;;;;;;;6246813;23;20159;-81
2022/02/17 02:46:27;;;;;;;0.20;0.20;;;;;;;;;;6249063;23;20154;-82
2022/02/17 02:48:53;;;;;;;0.23;0.20;;;;;;;;;;6246163;23;20161;-81
2022/02/17 02:51:19;;;;;;;0.30;0.30;;;;;;;;;;6244677;23;20237;-81
2022/02/17 02:53:47;;;;;;;0.97;0.30;;;;;;;;;;6244797;23;20211;-83
2022/02/17 02:56:13;;;;;;;0.20;0.20;;;;;;;;;;6244649;23;20174;-83
2022/02/17 02:58:39;;;;;;;0.10;0.10;;;;;;;;;;6247961;23;20148;-82
2022/02/17 03:01:06;;;;;;;0.10;0.10;;;;;;;;;;6248412;23;20490;-82
2022/02/17 03:03:32;;;;;;;0.10;0.10;;;;;;;;;;6248373;23;20488;-83
2022/02/17 03:05:57;;;;;;;0.03;0.03;;;;;;;;;;6246331;23;20201;-82
2022/02/17 03:08:23;;;;;;;0.00;0.00;;;;;;;;;;6247985;23;20153;-82
2022/02/17 03:10:49;;;;;;;0.13;0.10;;;;;;;;;;6248578;23;20567;-82
2022/02/17 03:13:15;;;;;;;0.20;0.10;;;;;;;;;;6247834;23;20151;-81
2022/02/17 03:15:41;;;;;;;0.17;0.10;;;;;;;;;;6246065;23;20184;-83
2022/02/17 03:18:07;;;;;;;0.50;0.10;;;;;;;;;;6247962;23;20154;-83
2022/02/17 03:20:34;;;;;;;0.30;0.20;;;;;;;;;;6250305;23;20157;-83
2022/02/17 03:23:00;;;;;;;0.17;0.10;;;;;;;;;;6252343;22;20150;-83
2022/02/17 03:25:26;;;;;;;0.10;0.10;;;;;;;;;;6251280;23;20270;-83
2022/02/17 03:27:52;;;;;;;0.10;0.10;;;;;;;;;;6250830;23;20157;-83
2022/02/17 03:30:18;;;;;;;0.63;0.30;;;;;;;;;;6252801;23;20181;-83
2022/02/17 03:32:44;;;;;;;0.60;0.40;;;;;;;;;;6251882;23;20179;-83
2022/02/17 03:35:11;;;;;;;0.10;0.10;;;;;;;;;;6250208;23;20194;-83
2022/02/17 03:37:37;;;;;;;0.10;0.10;;;;;;;;;;6252599;22;20147;-83
2022/02/17 03:40:04;;;;;;;0.03;0.03;;;;;;;;;;6251478;23;20483;-83
2022/02/17 03:42:30;;;;;;;0.77;0.20;;;;;;;;;;6251934;23;20577;-83
2022/02/17 03:44:56;;;;;;;0.13;0.13;;;;;;;;;;6251835;23;20618;-84
2022/02/17 03:47:22;;;;;;;0.20;0.10;;;;;;;;;;6251765;23;20252;-83
2022/02/17 03:49:48;;;;;;;0.10;0.10;;;;;;;;;;6250418;23;20153;-84
2022/02/17 03:52:14;;;;;;;1.70;0.30;;;;;;;;;;6251239;23;20210;-84
2022/02/17 03:54:41;;;;;;;0.40;0.20;;;;;;;;;;6251238;23;20190;-83
2022/02/17 03:57:06;;;;;;;0.50;0.40;;;;;;;;;;6250543;23;20154;-84
2022/02/17 03:59:32;;;;;;;0.23;0.20;;;;;;;;;;6251892;23;20147;-83
2022/02/17 04:01:59;;;;;;;1.00;0.40;;;;;;;;;;6249832;23;20177;-83
2022/02/17 04:04:26;;;;;;;2.40;0.40;;;;;;;;;;6250745;23;20256;-83
2022/02/17 04:06:52;;;;;;;0.30;0.20;;;;;;;;;;6252718;23;20151;-83
2022/02/17 04:09:18;;;;;;;0.20;0.20;;;;;;;;;;6251677;23;20599;-83
2022/02/17 04:11:46;;;;;;;0.33;0.20;;;;;;;;;;6252008;23;20558;-82
2022/02/17 04:14:12;;;;;;;0.30;0.30;;;;;;;;;;6252329;23;20169;-84
2022/02/17 04:16:38;;;;;;;0.20;0.20;;;;;;;;;;6250817;23;20169;-83
2022/02/17 04:19:07;;;;;;;0.93;0.20;;;;;;;;;;6250344;23;20157;-84
2022/02/17 04:21:33;;;;;;;0.10;0.10;;;;;;;;;;6249891;23;20148;-83
2022/02/17 04:23:59;;;;;;;0.10;0.10;;;;;;;;;;6250377;23;20151;-83
2022/02/17 04:26:25;;;;;;;0.40;0.10;;;;;;;;;;6223768;23;20179;-83
2022/02/17 04:28:51;;;;;;;0.10;0.10;;;;;;;;;;6250544;23;20188;-83
2022/02/17 04:31:17;;;;;;;0.20;0.10;;;;;;;;;;6251927;23;20146;-84
2022/02/17 04:33:44;;;;;;;0.30;0.30;;;;;;;;;;6250389;23;20176;-83
2022/02/17 04:36:10;;;;;;;3.90;0.30;;;;;;;;;;6223504;23;20611;-83
2022/02/17 04:38:37;;;;;;;0.53;0.20;;;;;;;;;;6223894;23;20151;-83
2022/02/17 04:43:47;;;;;;;0.83;0.20;;;;;;;;;;6250989;23;20145;-83
2022/02/17 04:46:13;;;;;;;0.37;0.10;;;;;;;;;;6252100;23;20508;-84
2022/02/17 04:48:39;;;;;;;0.10;0.10;;;;;;;;;;6252201;23;20147;-83
2022/02/17 04:51:06;;;;;;;0.10;0.10;;;;;;;;;;6251567;23;20141;-83
2022/02/17 04:53:32;;;;;;;0.20;0.20;;;;;;;;;;6249606;23;20698;-84
2022/02/17 04:55:58;;;;;;;0.43;0.37;;;;;;;;;;6250204;23;20170;-83
2022/02/17 04:58:25;;;;;;;0.10;0.10;;;;;;;;;;6254546;23;20248;-82
2022/02/17 05:00:51;;;;;;;1.43;0.10;;;;;;;;;;6250649;23;20179;-83
2022/02/17 05:03:17;;;;;;;1.30;0.20;;;;;;;;;;6252081;23;20176;-82
2022/02/17 05:05:43;;;;;;;0.50;0.33;;;;;;;;;;6252218;23;20201;-84
2022/02/17 05:08:10;;;;;;;1.40;0.30;;;;;;;;;;6251579;22;20152;-84
2022/02/17 05:10:36;;;;;;;0.20;0.20;;;;;;;;;;6251938;23;20141;-84
2022/02/17 05:13:02;;;;;;;0.20;0.20;;;;;;;;;;6253964;23;20154;-83
2022/02/17 05:15:28;;;;;;;0.43;0.30;;;;;;;;;;6253160;23;20184;-84
2022/02/17 05:17:57;;;;;;;0.10;0.10;;;;;;;;;;6253554;22;20146;-83
2022/02/17 05:20:23;;;;;;;1.33;0.20;;;;;;;;;;6254108;22;20146;-83
2022/02/17 05:22:49;;;;;;;0.30;0.20;;;;;;;;;;6253907;23;20143;-84
2022/02/17 05:25:15;;;;;;;0.30;0.30;;;;;;;;;;6254400;23;20172;-83
2022/02/17 05:27:41;;;;;;;0.63;0.30;;;;;;;;;;6253402;23;20291;-83
2022/02/17 05:30:08;;;;;;;0.73;0.30;;;;;;;;;;6251797;23;20153;-84
2022/02/17 05:32:39;;;;;;;0.20;0.20;;;;;;;;;;6253508;23;20153;-83
2022/02/17 05:35:06;;;;;;;0.20;0.13;;;;;;;;;;6253631;22;20760;-83
2022/02/17 05:37:32;;;;;;;0.37;0.20;;;;;;;;;;6251928;23;20157;-83
2022/02/17 05:40:01;;;;;;;0.30;0.10;;;;;;;;;;6252590;23;20148;-83
2022/02/17 05:42:27;;;;;;;0.10;0.10;;;;;;;;;;6254135;22;20186;-84
2022/02/17 05:44:53;;;;;;;0.47;0.20;;;;;;;;;;6252314;23;20517;-83
2022/02/17 05:47:19;;;;;;;0.10;0.10;;;;;;;;;;6250814;23;20162;-84
2022/02/17 05:49:45;;;;;;;0.73;0.20;;;;;;;;;;6250963;23;20158;-83
2022/02/17 05:52:11;;;;;;;0.23;0.20;;;;;;;;;;6252428;23;20224;-83
2022/02/17 05:54:37;;;;;;;0.47;0.30;;;;;;;;;;6252544;23;20181;-83
2022/02/17 05:57:03;;;;;;;0.17;0.10;;;;;;;;;;6252130;23;20151;-83
2022/02/17 05:59:29;;;;;;;0.43;0.23;;;;;;;;;;6251701;22;20602;-83
2022/02/17 06:01:55;;;;;;;0.17;0.17;;;;;;;;;;6250976;23;20145;-83
2022/02/17 06:04:21;;;;;;;0.97;0.30;;;;;;;;;;6249115;23;20160;-82
2022/02/17 06:06:47;;;;;;;0.27;0.10;;;;;;;;;;6250634;23;20153;-84
2022/02/17 06:09:13;;;;;;;0.10;0.10;;;;;;;;;;6249047;23;20156;-84
2022/02/17 06:11:39;;;;;;;0.20;0.20;;;;;;;;;;6250063;23;20161;-83
2022/02/17 06:14:06;;;;;;;0.20;0.20;;;;;;;;;;6251023;23;20174;-83
2022/02/17 06:16:32;;;;;;;0.10;0.10;;;;;;;;;;6248872;23;20600;-83
2022/02/17 06:18:57;;;;;;;1.13;0.20;;;;;;;;;;6248689;23;20164;-83
2022/02/17 06:21:23;;;;;;;0.30;0.10;;;;;;;;;;6249950;23;20150;-83
2022/02/17 06:23:49;;;;;;;0.10;0.10;;;;;;;;;;6250625;23;20154;-84
2022/02/17 06:26:18;;;;;;;1.10;0.70;;;;;;;;;;6250795;23;20172;-83
2022/02/17 06:28:44;;;;;;;0.10;0.10;;;;;;;;;;6253787;22;20483;-84
2022/02/17 06:31:10;;;;;;;0.40;0.33;;;;;;;;;;6252953;23;20225;-83
2022/02/17 06:33:38;;;;;;;0.10;0.10;;;;;;;;;;6252255;23;20192;-86
2022/02/17 06:36:05;;;;;;;0.10;0.10;;;;;;;;;;6252338;23;20180;-84
2022/02/17 06:38:32;;;;;;;0.47;0.20;;;;;;;;;;6252320;23;20226;-84
2022/02/17 06:40:58;;;;;;;0.10;0.10;;;;;;;;;;6253497;22;20180;-84
2022/02/17 06:43:25;;;;;;;0.00;0.00;;;;;;;;;;6249699;23;20150;-83
2022/02/17 06:45:51;;;;;;;0.07;0.07;;;;;;;;;;6248912;22;20192;-84
2022/02/17 06:48:17;;;;;;;0.97;0.10;;;;;;;;;;6248166;23;20154;-83
2022/02/17 06:50:43;;;;;;;0.80;0.30;;;;;;;;;;6248369;23;20173;-84
2022/02/17 06:53:09;;;;;;;0.20;0.20;;;;;;;;;;6249486;22;20141;-83
2022/02/17 06:55:35;;;;;;;0.60;0.10;;;;;;;;;;6249262;23;20182;-85
2022/02/17 06:58:01;;;;;;;0.10;0.10;;;;;;;;;;6248662;23;20272;-84
2022/02/17 07:00:27;;;;;;;0.10;0.10;;;;;;;;;;6250803;23;20145;-84
2022/02/17 07:02:54;;;;;;;0.10;0.10;;;;;;;;;;6251348;23;20156;-84
2022/02/17 07:05:21;;;;;;;0.10;0.10;;;;;;;;;;6251862;23;20179;-83
2022/02/17 07:07:48;;;;;;;0.30;0.10;;;;;;;;;;6251219;23;20159;-84
2022/02/17 07:10:14;;;;;;;0.10;0.10;;;;;;;;;;6251264;23;20154;-84
2022/02/17 07:12:45;;;;;;;1.27;0.20;;;;;;;;;;6251340;23;20203;-84
2022/02/17 07:15:11;;;;;;;0.10;0.10;;;;;;;;;;6251455;23;20190;-84
2022/02/17 07:17:37;;;;;;;0.00;0.00;;;;;;;;;;6250573;23;20261;-84
2022/02/17 07:20:04;;;;;;;1.67;0.90;;;;;;;;;;6250770;23;20150;-83
2022/02/17 07:22:33;;;;;;;0.30;0.20;;;;;;;;;;6250928;23;20151;-84
2022/02/17 07:24:59;;;;;;;0.10;0.10;;;;;;;;;;6247022;23;20198;-85
2022/02/17 07:27:25;;;;;;;0.17;0.13;;;;;;;;;;6248162;23;20157;-84
2022/02/17 07:29:52;;;;;;;0.43;0.10;;;;;;;;;;6247136;23;20184;-84
2022/02/17 07:32:18;;;;;;;0.30;0.10;;;;;;;;;;6249283;22;20150;-83
2022/02/17 07:34:44;;;;;;;0.00;0.00;;;;;;;;;;6246936;23;20396;-84
2022/02/17 07:37:10;;;;;;;0.10;0.10;;;;;;;;;;6247354;23;20151;-84
2022/02/17 07:39:36;;;;;;;0.00;0.00;;;;;;;;;;6249063;23;20148;-83
2022/02/17 07:42:02;;;;;;;0.10;0.10;;;;;;;;;;6248193;23;20205;-84
2022/02/17 07:44:28;;;;;;;0.30;0.10;;;;;;;;;;6250424;23;20175;-82
2022/02/17 07:46:54;;;;;;;0.10;0.10;;;;;;;;;;6249849;23;20208;-83
2022/02/17 07:49:20;;;;;;;0.90;0.10;;;;;;;;;;6250480;23;20145;-84
2022/02/17 07:51:46;;;;;;;0.27;0.00;;;;;;;;;;6250476;23;20163;-83
2022/02/17 07:54:12;;;;;;;0.00;0.00;;;;;;;;;;6249937;23;20177;-84
2022/02/17 07:56:38;;;;;;;0.40;0.20;;;;;;;;;;6247306;23;20186;-84
2022/02/17 07:59:04;;;;;;;0.10;0.10;;;;;;;;;;6249626;23;20623;-83
2022/02/17 08:01:30;;;;;;;0.30;0.23;;;;;;;;;;6249533;23;20151;-83
2022/02/17 08:03:56;;;;;;;0.10;0.10;;;;;;;;;;6247390;23;20187;-84
2022/02/17 08:06:22;;;;;;;0.80;0.10;;;;;;;;;;6250569;23;20171;-83
2022/02/17 08:08:50;;;;;;;0.40;0.20;;;;;;;;;;6252296;23;20162;-84
2022/02/17 08:11:17;;;;;;;0.10;0.10;;;;;;;;;;6253831;22;20179;-84
2022/02/17 08:13:43;;;;;;;0.10;0.10;;;;;;;;;;6253406;23;20184;-84
2022/02/17 08:16:10;;;;;;;0.40;0.10;;;;;;;;;;6250980;23;20616;-83
2022/02/17 08:18:36;;;;;;;0.10;0.10;;;;;;;;;;6252285;23;20270;-84
2022/02/17 08:21:02;;;;;;;2.33;0.13;;;;;;;;;;6252258;23;20150;-84
2022/02/17 08:23:32;;;;;;;0.30;0.30;;;;;;;;;;6254623;23;20141;-84
2022/02/17 08:26:00;;;;;;;0.13;0.10;;;;;;;;;;6251126;23;20170;-84
2022/02/17 08:28:26;;;;;;;0.10;0.10;;;;;;;;;;6253157;22;20205;-84
2022/02/17 08:30:55;;;;;;;0.30;0.20;;;;;;;;;;6249948;23;20547;-84
2022/02/17 08:33:21;;;;;;;0.30;0.20;;;;;;;;;;6252685;23;20152;-83
2022/02/17 08:35:47;;;;;;;0.47;0.27;;;;;;;;;;6252989;23;20169;-84
2022/02/17 08:38:14;;;;;;;0.37;0.20;;;;;;;;;;6253806;23;20625;-83
2022/02/17 08:40:40;;;;;;;0.37;0.37;;;;;;;;;;6253062;22;20163;-84
2022/02/17 08:43:08;;;;;;;0.20;0.20;;;;;;;;;;6251211;23;20604;-83
2022/02/17 08:45:42;;;;;;;0.20;0.10;;;;;;;;;;6226138;23;20183;-84
2022/02/17 08:48:08;;;;;;;0.03;0.03;;;;;;;;;;6252367;23;20206;-83
2022/02/17 08:50:34;;;;;;;0.20;0.20;;;;;;;;;;6250780;23;20173;-84
2022/02/17 08:53:00;;;;;;;0.00;0.00;;;;;;;;;;6253160;23;20158;-84
2022/02/17 08:55:26;;;;;;;0.10;0.10;;;;;;;;;;6254334;23;20191;-84
2022/02/17 08:57:56;;;;;;;0.10;0.10;;;;;;;;;;6255606;23;20152;-84
2022/02/17 09:00:22;;;;;;;0.20;0.10;;;;;;;;;;6253211;23;20609;-84
2022/02/17 09:02:48;;;;;;;0.50;0.00;;;;;;;;;;6255739;22;20147;-84
2022/02/17 09:05:14;;;;;;;0.53;0.13;;;;;;;;;;6254741;23;20525;-84
2022/02/17 09:07:40;;;;;;;0.10;0.10;;;;;;;;;;6255120;23;20154;-84
2022/02/17 09:10:09;;;;;;;0.10;0.10;;;;;;;;;;6254056;23;20179;-84
2022/02/17 09:12:40;;;;;;;0.10;0.10;;;;;;;;;;6255396;23;20152;-84
2022/02/17 09:15:13;;;;;;;1.30;0.10;;;;;;;;;;6252683;23;20231;-85
2022/02/17 09:17:49;;;;;;;1.60;0.20;;;;;;;;;;6252574;23;20149;-84
2022/02/17 09:20:21;;;;;;;0.10;0.10;;;;;;;;;;6253244;23;20171;-85
2022/02/17 09:22:48;;;;;;;0.57;0.27;;;;;;;;;;6254022;23;20233;-84
2022/02/17 09:25:17;;;;;;;1.23;0.10;;;;;;;;;;6255201;23;20251;-84
2022/02/17 09:27:46;;;;;;;0.77;0.40;;;;;;;;;;6254796;23;20216;-86
2022/02/17 09:30:41;;;;;;;0.83;0.30;;;;;;;;;;6254972;22;20159;-86
2022/02/17 09:33:25;;;;;;;0.53;0.20;;;;;;;;;;6252589;23;20143;-84
2022/02/17 09:36:00;;;;;;;0.60;0.27;;;;;;;;;;6252733;23;20603;-84
2022/02/17 09:38:55;;;;;;;0.83;0.30;;;;;;;;;;6251365;23;20146;-84
2022/02/17 09:41:22;;;;;;;0.73;0.30;;;;;;;;;;6161785;23;20630;-84
2022/02/17 09:43:49;;;;;;;1.07;0.83;;;;;;;;;;6244459;23;20231;-84
2022/02/17 09:47:00;;;;;;;;;;;;;;;;;;;;;
2022/02/17 09:49:27;;;;;;;1.00;0.40;;;;;;;;;;6248258;23;20176;-84
2022/02/17 09:51:56;;;;;;;0.50;0.30;;;;;;;;;;6251590;23;20210;-84
2022/02/17 09:54:25;;;;;;;3.63;0.80;;;;;;;;;;6254288;23;20175;-85
2022/02/17 09:56:56;;;;;;;0.83;0.20;;;;;;;;;;6254013;23;20231;-86
2022/02/17 09:59:42;;;;;;;1.33;0.20;;;;;;;;;;6254135;23;20143;-84
2022/02/17 10:02:12;;;;;;;2.10;0.20;;;;;;;;;;6254019;22;20146;-84
2022/02/17 10:04:52;;;;;;;0.70;0.30;;;;;;;;;;6254621;22;20178;-83
2022/02/17 10:08:08;;;;;;;1.37;0.53;;;;;;;;;;6253232;23;20153;-84
2022/02/17 10:10:40;;;;;;;0.27;0.20;;;;;;;;;;6238839;22;20186;-84
2022/02/17 10:13:16;;;;;;;0.20;0.10;;;;;;;;;;6252368;22;20147;-84
2022/02/17 10:15:53;;;;;;;0.47;0.20;;;;;;;;;;6252570;23;20182;-84
2022/02/17 10:18:27;;;;;;;0.77;0.27;;;;;;;;;;6251880;23;20137;-84
2022/02/17 10:21:12;;;;;;;0.60;0.20;;;;;;;;;;6251691;23;20617;-84
2022/02/17 10:24:00;;;;;;;0.80;0.20;;;;;;;;;;6253519;22;20126;-84
2022/02/17 10:26:30;;;;;;;0.70;0.33;;;;;;;;;;6254689;22;20176;-84
2022/02/17 10:29:06;;;;;;;1.23;0.30;;;;;;;;;;6252049;23;20211;-83
2022/02/17 10:31:35;;;;;;;1.87;0.50;;;;;;;;;;6254327;23;20172;-83
2022/02/17 10:34:02;;;;;;;0.47;0.20;;;;;;;;;;6254800;23;20180;-84
2022/02/17 10:36:32;;;;;;;1.53;0.30;;;;;;;;;;6249652;23;20174;-83
2022/02/17 10:39:09;;;;;;;0.80;0.20;;;;;;;;;;6249423;23;20157;-83
2022/02/17 10:41:45;;;;;;;2.50;0.30;;;;;;;;;;6250990;23;20182;-83
2022/02/17 10:44:11;;;;;;;0.77;0.30;;;;;;;;;;6250215;23;20202;-83
2022/02/17 10:46:42;;;;;;;0.50;0.30;;;;;;;;;;6250954;23;20233;-87
2022/02/17 10:49:19;;;;;;;0.40;0.30;;;;;;;;;;6249882;23;20160;-84
2022/02/17 10:51:48;;;;;;;1.13;0.30;;;;;;;;;;6250228;22;20511;-84
2022/02/17 10:54:40;;;;;;;2.17;0.50;;;;;;;;;;6248840;23;20271;-84
2022/02/17 10:57:13;;;;;;;2.10;0.23;;;;;;;;;;6270666;22;20221;-84
2022/02/17 11:00:05;;;;;;;0.93;0.40;;;;;;;;;;6250569;23;20482;-84
2022/02/17 11:02:31;;;;;;;0.80;0.40;;;;;;;;;;6249887;23;20156;-84
2022/02/17 11:04:57;;;;;;;1.53;0.57;;;;;;;;;;6250950;23;20177;-84
2022/02/17 11:07:28;;;;;;;2.00;0.47;;;;;;;;;;6252080;23;20152;-84
2022/02/17 11:09:54;;;;;;;1.10;0.30;;;;;;;;;;6247976;23;20152;-84
2022/02/17 11:12:22;;;;;;;1.43;0.40;;;;;;;;;;6250198;23;20149;-83
2022/02/17 11:14:50;;;;;;;4.63;1.03;;;;;;;;;;6248080;23;20188;-83
2022/02/17 11:17:16;;;;;;;1.70;0.60;;;;;;;;;;6248443;22;20790;-84
2022/02/17 11:19:42;;;;;;;2.17;0.70;;;;;;;;;;6248443;23;20153;-85
2022/02/17 11:22:08;;;;;;;2.07;0.80;;;;;;;;;;6251294;23;20148;-84
2022/02/17 11:24:47;;;;;;;3.47;0.70;;;;;;;;;;6250345;23;20236;-83
2022/02/17 11:27:13;;;;;;;3.37;0.90;;;;;;;;;;6251250;22;20159;-84
2022/02/17 11:29:41;;;;;;;2.40;0.50;;;;;;;;;;6248749;23;20156;-84
2022/02/17 11:32:36;;;;;;;4.40;1.10;;;;;;;;;;6247424;23;20165;-84
2022/02/17 11:35:02;;;;;;;2.33;0.77;;;;;;;;;;6230084;22;20256;-84
2022/02/17 11:37:42;;;;;;;3.20;0.83;;;;;;;;;;6248094;23;20156;-83
2022/02/17 11:40:15;;;;;;;3.00;0.90;;;;;;;;;;6248992;23;20140;-86
2022/02/17 11:42:42;;;;;;;4.20;0.73;;;;;;;;;;6249099;22;20134;-85
2022/02/17 11:45:22;;;;;;;3.43;0.90;;;;;;;;;;6250469;22;20175;-85
2022/02/17 11:48:05;;;;;;;4.33;1.23;;;;;;;;;;6250157;23;20152;-85
2022/02/17 11:50:39;;;;;;;2.90;1.00;;;;;;;;;;6247631;23;20184;-85
2022/02/17 11:53:27;;;;;;;3.27;1.07;;;;;;;;;;6247491;23;20158;-84
2022/02/17 11:55:54;;;;;;;3.97;1.37;;;;;;;;;;6244841;23;20638;-85
2022/02/17 11:58:38;;;;;;;5.53;1.03;;;;;;;;;;6247255;23;20538;-83
2022/02/17 12:01:25;;;;;;;4.37;1.57;;;;;;;;;;6248196;23;20151;-84
2022/02/17 12:04:08;;;;;;;4.73;1.10;;;;;;;;;;6249758;23;20155;-85
2022/02/17 12:06:47;;;;;;;3.73;1.10;;;;;;;;;;6246962;22;20225;-85
2022/02/17 12:12:13;;;;;;;4.90;1.17;;;;;;;;;;6245530;23;20180;-84
2022/02/17 12:14:45;;;;;;;5.83;1.63;;;;;;;;;;6248372;22;20187;-83
2022/02/17 12:17:11;;;;;;;4.83;0.73;;;;;;;;;;6249488;23;20135;-84
2022/02/17 12:19:37;;;;;;;1.83;0.57;;;;;;;;;;6249738;23;20156;-84
2022/02/17 12:22:07;;;;;;;5.93;1.37;;;;;;;;;;6250003;23;20152;-85
2022/02/17 12:24:33;;;;;;;6.70;1.17;;;;;;;;;;6249813;23;20257;-84
2022/02/17 12:26:59;;;;;;;5.77;1.10;;;;;;;;;;6250082;23;20508;-84
2022/02/17 12:29:29;;;;;;;4.53;1.17;;;;;;;;;;6249895;23;20180;-84
2022/02/17 12:31:56;;;;;;;2.77;1.00;;;;;;;;;;6248409;22;20148;-83
2022/02/17 12:34:26;;;;;;;5.40;1.37;;;;;;;;;;6247112;23;20180;-84
2022/02/17 12:36:52;;;;;;;8.20;1.30;;;;;;;;;;6244352;23;20154;-85
2022/02/17 12:39:32;;;;;;;4.33;1.40;;;;;;;;;;6243854;23;20149;-84
2022/02/17 12:41:59;;;;;;;5.27;1.50;;;;;;;;;;6247135;23;20212;-84
2022/02/17 12:44:49;;;;;;;5.17;1.57;;;;;;;;;;6242500;22;20797;-84
2022/02/17 12:47:24;;;;;;;6.23;1.20;;;;;;;;;;6261696;22;20164;-84
2022/02/17 12:49:56;;;;;;;6.03;1.43;;;;;;;;;;6249704;23;20171;-83
2022/02/17 12:52:28;;;;;;;3.67;0.87;;;;;;;;;;6247811;22;20580;-84
2022/02/17 12:55:07;;;;;;;3.20;0.77;;;;;;;;;;6248424;23;20202;-84
2022/02/17 12:57:46;;;;;;;4.00;0.73;;;;;;;;;;6246956;22;20133;-83
2022/02/17 13:00:22;;;;;;;2.83;0.70;;;;;;;;;;6246794;23;20144;-86
2022/02/17 13:02:56;;;;;;;5.30;0.80;;;;;;;;;;6246082;23;20148;-84
2022/02/17 13:05:22;;;;;;;3.27;0.90;;;;;;;;;;6249892;23;20176;-84
2022/02/17 13:07:48;;;;;;;6.50;1.30;;;;;;;;;;6250577;23;20158;-84
2022/02/17 13:10:22;;;;;;;5.23;0.93;;;;;;;;;;6247968;23;20179;-84
2022/02/17 13:12:56;;;;;;;3.33;1.23;;;;;;;;;;6249301;23;20161;-84
2022/02/17 13:15:22;;;;;;;3.17;1.13;;;;;;;;;;6249754;23;20191;-83
2022/02/17 13:17:48;;;;;;;3.50;0.83;;;;;;;;;;6250513;23;20156;-84
2022/02/17 13:20:26;;;;;;;1.77;0.90;;;;;;;;;;6251004;23;20235;-83
2022/02/17 13:23:03;;;;;;;1.97;0.60;;;;;;;;;;6252339;23;20142;-83
2022/02/17 13:25:39;;;;;;;2.10;0.70;;;;;;;;;;6250566;23;20265;-84
2022/02/17 13:28:16;;;;;;;2.07;0.87;;;;;;;;;;6252681;23;20142;-83
2022/02/17 13:30:54;;;;;;;4.50;3.00;;;;;;;;;;6250452;23;20235;-84
2022/02/17 13:33:27;;;;;;;2.93;0.87;;;;;;;;;;6251209;23;20153;-83
2022/02/17 13:35:57;;;;;;;4.53;1.03;;;;;;;;;;6251672;22;20203;-83
2022/02/17 13:38:31;;;;;;;2.30;1.00;;;;;;;;;;6250662;22;20153;-83
2022/02/17 13:41:02;;;;;;;2.87;0.80;;;;;;;;;;6251644;22;20163;-84
2022/02/17 13:43:28;;;;;;;1.93;0.67;;;;;;;;;;6247928;23;20238;-83
2022/02/17 13:46:08;;;;;;;2.77;1.00;;;;;;;;;;6250345;23;20190;-83
2022/02/17 13:48:38;;;;;;;3.33;0.87;;;;;;;;;;6246067;23;20199;-84
2022/02/17 13:51:11;;;;;;;2.73;0.87;;;;;;;;;;6249771;23;20206;-84
2022/02/17 13:53:38;;;;;;;5.97;1.20;;;;;;;;;;6249343;23;20217;-85
2022/02/17 13:56:30;;;;;;;3.13;1.00;;;;;;;;;;6249321;23;20179;-84
2022/02/17 13:59:13;;;;;;;6.40;1.70;;;;;;;;;;6247350;23;20507;-84
2022/02/17 14:01:45;;;;;;;4.73;1.30;;;;;;;;;;6249803;22;20143;-84
2022/02/17 14:04:35;;;;;;;3.83;1.27;;;;;;;;;;6248604;23;20498;-84
2022/02/17 14:13:39;;;;;;;4.27;1.00;;;;;;;;;;6203199;22;20498;-82
2022/02/17 14:16:30;;;;;;;2.33;0.80;;;;;;;;;;6281684;22;20177;-80
2022/02/17 14:18:56;;;;;;;2.93;0.90;;;;;;;;;;6282181;22;20142;-81
2022/02/17 14:21:23;;;;;;;3.23;0.77;;;;;;;;;;6283474;22;20137;-80
2022/02/17 14:27:03;;;;;;;;;;;;;;;;;;;;;
2022/02/17 14:29:39;;;;;;;1.47;0.67;;;;;;;;;;6282648;22;20231;-80
2022/02/17 14:32:33;;;;;;;2.70;0.50;;;;;;;;;;6283091;22;20144;-80
2022/02/17 14:38:23;;;;;;;1.73;0.50;;;;;;;;;;6253520;23;20185;-82
2022/02/17 14:41:44;;;;;;;;;;;;;;;;;;;;;
2022/02/17 14:44:36;;;;;;;3.17;1.30;;;;;;;;;;6289214;22;20531;-81
2022/02/17 14:47:05;;;;;;;1.57;0.47;;;;;;;;;;6277044;22;20192;-79
2022/02/17 14:52:58;;;;;;;2.17;0.60;;;;;;;;;;6256128;23;20173;-80
2022/02/17 15:01:56;;;;;;;3.37;0.90;;;;;;;;;;6289621;22;20134;-81
2022/02/17 15:04:32;;;;;;;1.27;0.70;;;;;;;;;;6280234;22;20153;-81
2022/02/17 15:10:54;;;;;;;5.17;1.03;;;;;;;;;;6282621;22;20158;-83
2022/02/17 15:41:00;;;;;;;;;;;;;;;;;;;;;
2022/02/17 16:14:26;;;;;;;;;;;;;;;;;;;;;
2022/02/17 16:17:37;;;;;;;;;;;;;;;;;;;;;
2022/02/17 16:26:21;;;;;;;5.33;1.47;;;;;;;;;;6194876;23;20210;-83
2022/02/17 16:32:46;;;;;;;5.63;1.47;;;;;;;;;;6130331;23;20626;-80
2022/02/17 16:35:33;;;;;;;7.10;1.90;;;;;;;;;;6127378;23;20193;-80
2022/02/17 16:38:04;;;;;;;7.73;1.97;;;;;;;;;;6126418;23;20174;-80
2022/02/17 16:44:10;;;;;;;;;;;;;;;;;;;;;
2022/02/17 16:46:37;;;;;;;6.63;1.67;;;;;;;;;;6161938;23;20192;-81
2022/02/17 16:49:03;;;;;;;5.93;1.73;;;;;;;;;;6162659;23;20538;-81